createdAt,value
2023-04-09T00:00:08.232Z,47.85
2023-04-09T00:04:34.238Z,49.50
2023-04-09T00:08:36.305Z,50.35
2023-04-09T00:12:38.367Z,63.85
2023-04-09T00:16:40.835Z,61.53
2023-04-09T00:20:44.384Z,60.78
2023-04-09T00:24:46.492Z,62.60
2023-04-09T00:28:48.494Z,62.28
2023-04-09T00:32:51.156Z,69.68
2023-04-09T00:36:53.294Z,65.90
2023-04-09T00:40:55.362Z,47.05
2023-04-09T00:44:57.364Z,54.67
2023-04-09T00:48:59.736Z,53.15
2023-04-09T00:53:01.455Z,56.95
2023-04-09T00:57:03.631Z,36.90
2023-04-09T01:01:05.852Z,64.97
2023-04-09T01:05:08.675Z,62.72
2023-04-09T01:10:08.109Z,54.88
2023-04-09T01:14:23.264Z,63.30
2023-04-09T01:18:36.262Z,82.97
2023-04-09T01:22:57.184Z,63.25
2023-04-09T01:27:07.275Z,64.07
2023-04-09T01:31:34.270Z,56.83
2023-04-09T01:35:37.085Z,78.78
2023-04-09T01:39:39.677Z,63.22
2023-04-09T01:43:43.281Z,65.82
2023-04-09T01:47:45.934Z,60.08
2023-04-09T01:51:48.553Z,64.22
2023-04-09T01:55:50.703Z,64.55
2023-04-09T01:59:52.866Z,68.43
2023-04-09T02:03:59.034Z,56.88
2023-04-09T02:08:03.704Z,60.85
2023-04-09T02:12:09.610Z,65.75
2023-04-09T02:16:14.261Z,61.67
2023-04-09T02:20:18.904Z,68.15
2023-04-09T02:24:21.530Z,68.32
2023-04-09T02:28:23.776Z,73.18
2023-04-09T02:32:27.041Z,65.30
2023-04-09T02:36:29.541Z,58.80
2023-04-09T02:40:31.700Z,69.60
2023-04-09T02:44:33.794Z,91.55
2023-04-09T02:48:36.177Z,88.50
2023-04-09T02:52:38.672Z,80.35
2023-04-09T02:56:40.728Z,128.35
2023-04-09T03:00:42.904Z,119.80
2023-04-09T03:04:45.403Z,99.93
2023-04-09T03:08:47.479Z,86.05
2023-04-09T03:12:49.515Z,98.95
2023-04-09T03:16:52.016Z,87.90
2023-04-09T03:20:54.357Z,87.85
2023-04-09T03:24:56.382Z,96.13
2023-04-09T03:28:58.766Z,81.70
2023-04-09T03:33:01.221Z,71.03
2023-04-09T03:37:05.884Z,70.75
2023-04-09T03:41:08.012Z,78.72
2023-04-09T03:45:10.553Z,75.88
2023-04-09T03:49:17.378Z,78.50
2023-04-09T03:53:20.391Z,56.85
2023-04-09T03:57:22.699Z,67.15
2023-04-09T04:01:27.499Z,67.15
2023-04-09T04:05:34.097Z,67.20
2023-04-09T04:09:40.639Z,61.08
2023-04-09T04:13:47.112Z,63.55
2023-04-09T04:17:49.450Z,56.17
2023-04-09T04:22:03.145Z,64.38
2023-04-09T04:26:12.248Z,71.80
2023-04-09T04:30:16.637Z,70.50
2023-04-09T04:34:40.309Z,79.20
2023-04-09T04:38:53.640Z,78.03
2023-04-09T04:43:23.175Z,85.15
2023-04-09T04:47:29.040Z,94.95
2023-04-09T04:51:33.124Z,91.47
2023-04-09T04:55:40.057Z,88.97
2023-04-09T04:59:44.517Z,108.35
2023-04-09T05:03:48.910Z,89.45
2023-04-09T05:08:00.757Z,93.22
2023-04-09T05:12:03.019Z,109.78
2023-04-09T05:16:05.586Z,90.00
2023-04-09T05:20:10.284Z,87.65
2023-04-09T05:24:22.682Z,77.28
2023-04-09T05:28:25.505Z,82.65
2023-04-09T05:32:38.355Z,75.15
2023-04-09T05:36:40.660Z,70.65
2023-04-09T05:40:44.384Z,70.68
2023-04-09T05:44:47.958Z,75.10
2023-04-09T05:48:54.520Z,70.03
2023-04-09T05:52:58.488Z,60.33
2023-04-09T05:57:07.451Z,48.70
2023-04-09T06:01:12.605Z,45.50
2023-04-09T06:05:15.106Z,43.20
2023-04-09T06:09:17.224Z,39.70
2023-04-09T06:13:19.226Z,40.35
2023-04-09T06:17:21.334Z,38.50
2023-04-09T06:21:23.396Z,39.63
2023-04-09T06:25:25.533Z,35.92
2023-04-09T06:29:28.037Z,35.00
2023-04-09T06:33:30.174Z,47.85
2023-04-09T06:37:32.294Z,32.17
2023-04-09T06:41:34.319Z,34.92
2023-04-09T06:45:43.880Z,29.90
2023-04-09T06:49:45.936Z,32.30
2023-04-09T06:53:48.184Z,36.70
2023-04-09T06:57:50.423Z,32.03
2023-04-09T07:01:54.530Z,31.38
2023-04-09T07:05:57.650Z,40.63
2023-04-09T07:09:59.326Z,31.38
2023-04-09T07:14:01.295Z,26.48
2023-04-09T07:18:03.638Z,25.00
2023-04-09T07:22:05.887Z,26.55
2023-04-09T07:26:07.894Z,32.50
2023-04-09T07:30:10.882Z,35.28
2023-04-09T07:34:13.023Z,30.58
2023-04-09T07:38:15.180Z,22.38
2023-04-09T07:42:17.326Z,26.45
2023-04-09T07:46:21.773Z,21.38
2023-04-09T07:50:24.004Z,22.20
2023-04-09T07:54:25.937Z,21.60
2023-04-09T07:58:28.303Z,18.80
2023-04-09T08:02:31.176Z,15.65
2023-04-09T08:06:33.458Z,16.80
2023-04-09T08:10:35.825Z,19.25
2023-04-09T08:14:37.863Z,19.02
2023-04-09T08:18:39.992Z,27.50
2023-04-09T08:22:42.175Z,18.70
2023-04-09T08:26:44.472Z,16.95
2023-04-09T08:30:47.672Z,23.50
2023-04-09T08:34:49.880Z,21.25
2023-04-09T08:38:53.153Z,18.17
2023-04-09T08:42:59.361Z,17.42
2023-04-09T08:47:02.577Z,15.57
2023-04-09T08:51:05.541Z,15.30
2023-04-09T08:55:08.463Z,16.20
2023-04-09T08:59:10.509Z,17.05
2023-04-09T09:03:13.433Z,16.17
2023-04-09T09:07:17.142Z,17.13
2023-04-09T09:11:28.403Z,19.77
2023-04-09T09:15:30.992Z,17.33
2023-04-09T09:19:33.915Z,16.92
2023-04-09T09:23:39.143Z,16.35
2023-04-09T09:27:41.307Z,14.75
2023-04-09T09:31:51.362Z,16.92
2023-04-09T09:35:57.566Z,19.48
2023-04-09T09:40:01.027Z,18.60
2023-04-09T09:44:04.549Z,17.20
2023-04-09T09:48:07.094Z,16.15
2023-04-09T09:52:11.628Z,15.93
2023-04-09T09:56:21.555Z,18.60
2023-04-09T10:00:25.512Z,18.25
2023-04-09T10:04:30.062Z,17.45
2023-04-09T10:08:34.190Z,22.00
2023-04-09T10:12:36.539Z,19.30
2023-04-09T10:16:38.783Z,15.75
2023-04-09T10:20:49.051Z,18.77
2023-04-09T10:24:52.608Z,17.15
2023-04-09T10:29:14.486Z,22.35
2023-04-09T10:33:23.028Z,14.55
2023-04-09T10:37:26.848Z,17.48
2023-04-09T10:41:30.799Z,15.65
2023-04-09T10:45:40.914Z,16.38
2023-04-09T10:49:42.940Z,16.17
2023-04-09T10:53:45.048Z,15.23
2023-04-09T10:57:47.190Z,15.77
2023-04-09T11:01:54.246Z,15.43
2023-04-09T11:06:11.610Z,12.85
2023-04-09T11:10:13.637Z,11.73
2023-04-09T11:14:20.383Z,12.23
2023-04-09T11:18:27.455Z,15.52
2023-04-09T11:22:29.465Z,14.13
2023-04-09T11:26:37.680Z,13.45
2023-04-09T11:30:39.687Z,13.48
2023-04-09T11:34:41.934Z,13.48
2023-04-09T11:38:43.965Z,12.52
2023-04-09T11:42:48.758Z,11.15
2023-04-09T11:46:51.093Z,11.98
2023-04-09T11:50:53.734Z,12.90
2023-04-09T11:55:00.378Z,17.13
2023-04-09T11:59:03.722Z,14.35
2023-04-09T12:03:06.594Z,18.33
2023-04-09T12:07:10.083Z,11.52
2023-04-09T12:11:16.083Z,15.15
2023-04-09T12:15:23.541Z,17.65
2023-04-09T12:19:25.749Z,11.98
2023-04-09T12:23:27.922Z,12.63
2023-04-09T12:27:30.248Z,9.05
2023-04-09T12:31:33.341Z,13.07
2023-04-09T12:35:35.643Z,10.23
2023-04-09T12:39:37.692Z,7.60
2023-04-09T12:43:39.753Z,15.15
2023-04-09T12:47:41.935Z,12.88
2023-04-09T12:51:44.006Z,10.52
2023-04-09T12:55:46.115Z,12.32
2023-04-09T12:59:48.195Z,13.25
2023-04-09T13:03:50.355Z,12.63
2023-04-09T13:07:52.558Z,12.65
2023-04-09T13:11:54.697Z,11.93
2023-04-09T13:15:56.363Z,11.00
2023-04-09T13:19:58.407Z,11.35
2023-04-09T13:24:00.558Z,14.63
2023-04-09T13:28:02.696Z,21.30
2023-04-09T13:32:07.384Z,16.30
2023-04-09T13:36:09.643Z,16.25
2023-04-09T13:40:11.964Z,28.90
2023-04-09T13:44:14.031Z,13.13
2023-04-09T13:48:16.172Z,19.42
2023-04-09T13:52:18.231Z,15.48
2023-04-09T13:56:20.590Z,19.58
2023-04-09T14:00:22.752Z,20.02
2023-04-09T14:04:24.824Z,23.83
2023-04-09T14:08:26.888Z,17.92
2023-04-09T14:12:28.911Z,19.38
2023-04-09T14:16:31.146Z,19.02
2023-04-09T14:20:33.622Z,18.17
2023-04-09T14:24:39.870Z,22.98
2023-04-09T14:28:43.358Z,17.30
2023-04-09T14:32:45.489Z,19.83
2023-04-09T14:36:47.617Z,16.70
2023-04-09T14:40:50.383Z,11.18
2023-04-09T14:44:52.385Z,11.30
2023-04-09T14:48:54.633Z,9.23
2023-04-09T14:52:56.923Z,8.07
2023-04-09T14:56:59.084Z,10.88
2023-04-09T15:01:01.207Z,11.05
2023-04-09T15:05:03.828Z,12.13
2023-04-09T15:09:05.999Z,7.60
2023-04-09T15:13:07.668Z,10.80
2023-04-09T15:17:09.794Z,9.00
2023-04-09T15:21:11.901Z,6.28
2023-04-09T15:25:14.563Z,10.02
2023-04-09T15:29:16.715Z,13.20
2023-04-09T15:33:18.781Z,5.15
2023-04-09T15:37:21.043Z,5.47
2023-04-09T15:41:23.860Z,6.53
2023-04-09T15:45:26.519Z,6.53
2023-04-09T15:49:28.721Z,6.80
2023-04-09T15:53:31.452Z,4.90
2023-04-09T15:57:33.495Z,5.40
2023-04-09T16:01:36.449Z,7.07
2023-04-09T16:05:39.199Z,10.32
2023-04-09T16:09:41.517Z,8.27
2023-04-09T16:13:43.526Z,8.57
2023-04-09T16:17:45.636Z,12.15
2023-04-09T16:21:47.706Z,9.65
2023-04-09T16:25:50.285Z,11.15
2023-04-09T16:29:52.311Z,12.98
2023-04-09T16:33:54.446Z,9.77
2023-04-09T16:37:56.674Z,14.27
2023-04-09T16:41:59.019Z,11.07
2023-04-09T16:46:01.698Z,11.00
2023-04-09T16:50:04.459Z,10.80
2023-04-09T16:54:06.697Z,13.10
2023-04-09T16:58:08.409Z,13.90
2023-04-09T17:02:10.699Z,12.05
2023-04-09T17:06:12.757Z,15.75
2023-04-09T17:10:15.586Z,10.95
2023-04-09T17:14:17.639Z,10.05
2023-04-09T17:18:19.739Z,12.23
2023-04-09T17:22:22.075Z,15.25
2023-04-09T17:26:25.412Z,13.40
2023-04-09T17:30:27.614Z,15.32
2023-04-09T17:34:29.762Z,21.60
2023-04-09T17:38:32.057Z,18.27
2023-04-09T17:42:34.175Z,12.88
2023-04-09T17:46:36.845Z,14.98
2023-04-09T17:50:39.134Z,23.95
2023-04-09T17:54:41.917Z,34.00
2023-04-09T17:58:44.751Z,28.17
2023-04-09T18:02:47.172Z,21.98
2023-04-09T18:06:49.424Z,22.17
2023-04-09T18:11:05.059Z,19.92
2023-04-09T18:15:13.822Z,21.58
2023-04-09T18:19:15.929Z,22.17
2023-04-09T18:23:18.545Z,21.80
2023-04-09T18:27:21.539Z,20.30
2023-04-09T18:31:23.922Z,20.42
2023-04-09T18:35:26.098Z,29.30
2023-04-09T18:39:30.749Z,23.90
2023-04-09T18:43:33.017Z,27.80
2023-04-09T18:47:35.838Z,27.73
2023-04-09T18:51:37.949Z,31.08
2023-04-09T18:55:39.675Z,28.00
2023-04-09T18:59:42.242Z,26.75
2023-04-09T19:03:44.847Z,28.02
2023-04-09T19:07:47.522Z,37.83
2023-04-09T19:11:49.922Z,48.58
2023-04-09T19:15:51.939Z,38.78
2023-04-09T19:19:53.958Z,51.03
2023-04-09T19:23:56.608Z,44.20
2023-04-09T19:27:58.862Z,43.22
2023-04-09T19:32:01.222Z,43.40
2023-04-09T19:36:04.259Z,48.95
2023-04-09T19:40:07.297Z,46.35
2023-04-09T19:44:09.946Z,37.58
2023-04-09T19:48:12.793Z,37.15
2023-04-09T19:52:15.075Z,38.10
2023-04-09T19:56:17.087Z,37.97
2023-04-09T20:00:19.517Z,33.13
2023-04-09T20:04:24.562Z,31.05
2023-04-09T20:08:26.652Z,31.08
2023-04-09T20:12:29.541Z,34.40
2023-04-09T20:16:32.109Z,29.73
2023-04-09T20:20:34.162Z,33.25
2023-04-09T20:24:36.689Z,35.85
2023-04-09T20:28:38.442Z,32.67
2023-04-09T20:32:41.264Z,31.30
2023-04-09T20:36:44.034Z,30.80
2023-04-09T20:40:46.402Z,42.45
2023-04-09T20:44:48.427Z,36.55
2023-04-09T20:48:50.553Z,39.35
2023-04-09T20:52:52.638Z,41.85
2023-04-09T20:56:55.090Z,48.65
2023-04-09T21:01:08.216Z,43.67
2023-04-09T21:05:22.018Z,49.33
2023-04-09T21:09:26.161Z,51.55
2023-04-09T21:13:28.711Z,57.03
2023-04-09T21:17:32.906Z,46.65
2023-04-09T21:21:35.003Z,51.20
2023-04-09T21:25:37.089Z,55.22
2023-04-09T21:29:39.222Z,47.13
2023-04-09T21:33:41.248Z,47.60
2023-04-09T21:37:43.295Z,46.38
2023-04-09T21:41:45.271Z,44.67
2023-04-09T21:45:47.209Z,33.10
2023-04-09T21:49:50.261Z,42.58
2023-04-09T21:53:52.582Z,43.47
2023-04-09T21:57:55.337Z,45.35
2023-04-09T22:01:57.454Z,49.63
2023-04-09T22:05:59.501Z,49.15
2023-04-09T22:10:01.495Z,45.80
2023-04-09T22:14:03.545Z,45.55
2023-04-09T22:18:05.615Z,54.15
2023-04-09T22:22:08.967Z,54.20
2023-04-09T22:26:11.078Z,44.65
2023-04-09T22:30:13.812Z,49.05
2023-04-09T22:34:21.348Z,51.08
2023-04-09T22:38:24.075Z,53.85
2023-04-09T22:42:26.124Z,53.55
2023-04-09T22:46:28.961Z,51.00
2023-04-09T22:50:31.012Z,53.13
2023-04-09T22:54:33.070Z,57.40
2023-04-09T22:58:36.283Z,58.17
2023-04-09T23:02:38.435Z,58.03
2023-04-09T23:06:40.634Z,62.40
2023-04-09T23:10:42.669Z,58.15
2023-04-09T23:14:44.698Z,63.88
2023-04-09T23:18:46.808Z,59.45
2023-04-09T23:22:49.469Z,62.28
2023-04-09T23:26:51.506Z,54.22
2023-04-09T23:30:53.588Z,68.38
2023-04-09T23:34:57.247Z,70.15
2023-04-09T23:38:59.266Z,57.28
2023-04-09T23:43:02.205Z,65.38
2023-04-09T23:47:05.914Z,67.82
2023-04-09T23:51:08.045Z,65.55
2023-04-09T23:55:11.985Z,78.20
2023-04-09T23:59:13.974Z,76.65
